SVT weather

San Vicente Airport
San Vicente De Chucurí, Santander Department, Colombia

Public forecast

Using degrees Celsius for public forecast. Weather courtesy of forecast.io.

METAR (pilot weather report)

Closest report is Palonegro Airport, 20.3 nm (37.6 km) NE. Retrieved 2019/03/26 21:00 UTC (1 hour ago):

SKBG 262100Z 34004KT 8000 SCT012 SCT240 25/21 A2990 RMK HZ

TAF (pilot weather forecast)

Forecast is more than 12 hours old.

Closest forecast is Palonegro Airport, 20.3 nm (37.6 km) NE. Retrieved 2019/03/24 12:00 UTC (2 days ago):

TAF SKBG 241100Z 2412/2512 VRB02KT 9999 SCT015 SCT080 TEMPO 2412/2413 8000 VCFG -DZ SCT007 BECMG 2414/2416 32008KT TEMPO 2419/2422 7000 RA SCT013TCU TEMPO 2500/2503 8000 VCFG -DZ SCT012 BECMG 2504/2506 00000KT TEMPO 2509/2512 7000 VCFG SCT007 TX25/2419Z TN18/2511Z